Acampo, California
Current Conditions -  °F | °C
As of 5:55 AM on Thursday 18 Dec 2014 (Local Time) from KSCK Reporting Station
Haze Haze  
Wind Chill: 51°   Ceiling: 4600
Heat Index: 51°   Visibility: 6mi
Dew Point: 49°   Wind: 6mph
Humidity: 92%   Direction: 160°SSE
Pressure: 30.12"   Gusts: NA
Location:  38.17°N, 121.28°W
Report Text: KSCK 181355Z AUTO 16005KT 6SM BR OVC046 11/09 A3012 RMK AO2 SLP198 T01060094
Loading
Personal Weather Stations






























Interactive Weather Map New forecast layout! Learn more

10-Day Weather Forecast

Advertisements
Track Severe Weather on mobile